Colorado Star — 9HA2189 — position and weather

sailwx.info

Track history (hours):
 
Tides and Currents Weather Stations Pressure Air Temp Water Temp Dewpoint Dewpoint Depression Visibility Wind Speed Wind Dir Waves Ship Positions

Colorado Star

Last reported at 2016-May-27 06:31 UTC. Time now 2016-May-27 06:38 UTC.
Position N 58°48' W 004°45'.

Length 128 m; draft 8 m.

Type: Ship. MMSI: 248127000.

Date/timePositionNaut miles runAvg speedWind from/ knotsBaromVisibWave heightAir tempDewpointWater temp
2016-May-27 06:31N 58°48' W 004°45'1212.8
2016-May-27 05:33N 58°47' W 004°22'1313.0
2016-May-27 04:33N 58°45' W 003°57'1312.6
2016-May-27 03:33N 58°44' W 003°32'1312.6
2016-May-27 02:33N 58°43' W 003°08'1111.0
2016-May-27 01:33N 58°42' W 002°47'3 2.6
2016-May-27 00:33N 58°42' W 002°42'11 8.5
2016-May-26 23:14N 58°42' W 002°21'1110.9
2016-May-26 22:16N 58°42' W 002°00'25411.2
2016-May-25 23:33N 57°39' E 005°46'1111.1
2016-May-25 22:32N 57°37' E 006°07'1110.9
2016-May-25 21:33N 57°36' E 006°27'1111.4
2016-May-25 20:33N 57°36' E 006°48'11511.6
2016-May-25 10:33N 58°05' E 010°18'1212.0
2016-May-25 09:33N 58°09' E 010°40'1212.0
2016-May-25 08:33N 58°14' E 011°01'1211.6
2016-May-25 07:33N 58°19' E 011°21'4 3.8
2016-May-25 06:33N 58°21' E 011°26'0 0.0
2016-May-25 05:33N 58°21' E 011°26'0 0.0
2016-May-25 04:33N 58°21' E 011°26'0 0.0
2016-May-25 03:33N 58°21' E 011°26'0 0.0
2016-May-25 02:33N 58°21' E 011°26'0 0.0
2016-May-25 01:33N 58°21' E 011°26'0 0.0
2016-May-25 00:33N 58°21' E 011°26'0 0.0
2016-May-24 23:33N 58°21' E 011°26'0 0.0
2016-May-24 22:33N 58°21' E 011°26'0 0.0
2016-May-24 21:33N 58°21' E 011°26'0 0.0
2016-May-24 20:30N 58°21' E 011°26'0 0.0
2016-May-24 19:33N 58°21' E 011°26'0 0.0
2016-May-24 18:30N 58°21' E 011°26'0 0.0
2016-May-24 17:33N 58°21' E 011°26'0 0.0
2016-May-24 16:33N 58°21' E 011°26'0 0.0
2016-May-24 15:33N 58°21' E 011°26'0 0.0
2016-May-24 14:33N 58°21' E 011°26'0 0.0
2016-May-24 13:33N 58°21' E 011°26'0 0.0
2016-May-24 12:33N 58°21' E 011°26'0 0.0
2016-May-24 11:30N 58°21' E 011°26'0 0.0
2016-May-24 10:33N 58°21' E 011°26'0 0.0
2016-May-24 09:33N 58°21' E 011°26'0 0.0
2016-May-24 08:33N 58°21' E 011°26'0 0.0
2016-May-24 07:33N 58°21' E 011°26'0 0.0
2016-May-24 06:33N 58°21' E 011°26'6 5.5
2016-May-24 05:33N 58°18' E 011°18'6 6.0
2016-May-24 04:32N 58°12' E 011°14'0 0.0
2016-May-24 03:32N 58°12' E 011°14'0 0.0
2016-May-24 02:32N 58°12' E 011°14'0 0.0
2016-May-24 01:32N 58°12' E 011°14'0 0.0
2016-May-24 00:32N 58°12' E 011°14'0 0.0
2016-May-23 23:32N 58°12' E 011°14'0 0.0
2016-May-23 22:32N 58°12' E 011°14'0 0.0
2016-May-23 21:32N 58°12' E 011°14'0 0.0
2016-May-23 20:32N 58°12' E 011°14'0 0.0
2016-May-23 19:32N 58°12' E 011°14'0 0.0
2016-May-23 18:32N 58°12' E 011°14'0 0.0
2016-May-23 17:32N 58°12' E 011°14'2 1.7
2016-May-23 16:33N 58°11' E 011°12'1211.5
2016-May-23 15:34N 57°60' E 011°15'1212.4
2016-May-23 14:34N 57°48' E 011°21'1212.2
2016-May-23 13:34N 57°36' E 011°28'7 7.0
2016-May-23 12:30N 57°33' E 011°41'0 0.0
2016-May-23 11:33N 57°33' E 011°41'0 0.0
2016-May-23 10:33N 57°33' E 011°41'0 0.0
2016-May-23 09:33N 57°33' E 011°41'0 0.0
2016-May-23 08:30N 57°33' E 011°41'0 0.0
2016-May-23 07:33N 57°33' E 011°41'0 0.0
2016-May-23 06:30N 57°33' E 011°41'0 0.0
2016-May-23 05:33N 57°33' E 011°41'0 0.0
2016-May-23 04:33N 57°33' E 011°41'0 0.0
2016-May-23 03:33N 57°33' E 011°41'0 0.0
2016-May-23 02:33N 57°33' E 011°41'0 0.0
2016-May-23 01:30N 57°33' E 011°41'0 0.0
2016-May-23 00:33N 57°33' E 011°41'0 0.0
2016-May-22 23:33N 57°33' E 011°41'0 0.0
2016-May-22 22:33N 57°33' E 011°41'0 0.0
2016-May-22 21:33N 57°33' E 011°41'0 0.0
2016-May-22 20:33N 57°33' E 011°41'0 0.0
2016-May-22 19:33N 57°33' E 011°41'0 0.0
2016-May-22 18:33N 57°33' E 011°41'0 0.0
2016-May-22 17:33N 57°33' E 011°41'0 0.0
2016-May-22 16:33N 57°33' E 011°41'0 0.0
2016-May-22 15:33N 57°33' E 011°41'0 0.0
2016-May-22 14:33N 57°33' E 011°41'0 0.0
2016-May-22 13:33N 57°33' E 011°41'0 0.0
2016-May-22 12:33N 57°33' E 011°41'0 0.0
2016-May-22 11:33N 57°33' E 011°41'0 0.0
2016-May-22 10:33N 57°33' E 011°41'0 0.0
2016-May-22 09:33N 57°33' E 011°41'0 0.0
2016-May-22 08:33N 57°33' E 011°41'0 0.0
2016-May-22 07:33N 57°33' E 011°41'0 0.0
2016-May-22 06:33N 57°33' E 011°41'0 0.0
2016-May-22 05:33N 57°33' E 011°41'0 0.0
2016-May-22 04:33N 57°33' E 011°41'0 0.0
2016-May-22 03:33N 57°33' E 011°41'0 0.0
2016-May-22 02:33N 57°33' E 011°41'0 0.0
2016-May-22 01:33N 57°33' E 011°41'0 0.0
2016-May-22 00:33N 57°33' E 011°41'0 0.0
2016-May-21 23:33N 57°33' E 011°41'0 0.0
2016-May-21 22:33N 57°33' E 011°41'0 0.0
2016-May-21 21:33N 57°33' E 011°41'0 0.0
2016-May-21 20:33N 57°33' E 011°41'0 0.0
2016-May-21 19:33N 57°33' E 011°41'0 0.0
2016-May-21 18:33N 57°33' E 011°41'0 0.0
2016-May-21 17:33N 57°33' E 011°41'0 0.0
2016-May-21 16:33N 57°33' E 011°41'0 0.0
2016-May-21 15:33N 57°33' E 011°41'0 0.0
2016-May-21 14:33N 57°33' E 011°41'0 0.0
2016-May-21 13:33N 57°33' E 011°41'0 0.0
2016-May-21 12:33N 57°33' E 011°41'0 0.0
2016-May-21 11:33N 57°33' E 011°41'0 0.0
2016-May-21 10:33N 57°33' E 011°41'0 0.0
2016-May-21 09:33N 57°33' E 011°41'0 0.0
2016-May-21 08:33N 57°33' E 011°41'0 0.0
2016-May-21 07:33N 57°33' E 011°41'0 0.0
2016-May-21 06:33N 57°33' E 011°41'0 0.0
2016-May-21 05:33N 57°33' E 011°41'0 0.0
2016-May-21 04:33N 57°33' E 011°41'0 0.0
2016-May-21 03:33N 57°33' E 011°41'0 0.0
2016-May-21 02:33N 57°33' E 011°41'0 0.0
2016-May-21 01:33N 57°33' E 011°41'0 0.0
2016-May-21 00:30N 57°33' E 011°41'0 0.0
2016-May-20 23:33N 57°33' E 011°41'0 0.0
2016-May-20 22:33N 57°33' E 011°41'0 0.0
2016-May-20 21:33N 57°33' E 011°41'0 0.0
2016-May-20 20:33N 57°33' E 011°41'0 0.0
2016-May-20 19:33N 57°33' E 011°41'0 0.0
2016-May-20 18:33N 57°33' E 011°41'0 0.0
2016-May-20 17:33N 57°33' E 011°41'0 0.0
2016-May-20 16:33N 57°33' E 011°41'0 0.0
2016-May-20 15:33N 57°33' E 011°41'0 0.0
2016-May-20 14:33N 57°33' E 011°41'0 0.0
2016-May-20 13:33N 57°33' E 011°41'0 0.0
2016-May-20 12:33N 57°33' E 011°41'0 0.0
2016-May-20 11:33N 57°33' E 011°41'0 0.0
2016-May-20 10:33N 57°33' E 011°41'0 0.0
2016-May-20 09:33N 57°33' E 011°41'0 0.0
2016-May-20 08:33N 57°33' E 011°41'0 0.0
2016-May-20 07:33N 57°33' E 011°41'0 0.0
2016-May-20 06:33N 57°33' E 011°41'0 0.0
2016-May-20 05:33N 57°33' E 011°41'0 0.0
2016-May-20 04:33N 57°33' E 011°41'0 0.0
2016-May-20 03:33N 57°33' E 011°41'0 0.0
2016-May-20 02:33N 57°33' E 011°41'0 0.0
2016-May-20 01:33N 57°33' E 011°41'0 0.0
2016-May-20 00:33N 57°33' E 011°41'0 0.0
2016-May-19 23:33N 57°33' E 011°41'0 0.0
2016-May-19 22:33N 57°33' E 011°41'0 0.0
2016-May-19 21:33N 57°33' E 011°41'0 0.0
2016-May-19 20:33N 57°33' E 011°41'0 0.0
2016-May-19 19:33N 57°33' E 011°41'0 0.0
2016-May-19 18:33N 57°33' E 011°41'0 0.0
2016-May-19 17:33N 57°33' E 011°41'0 0.0
2016-May-19 16:33N 57°33' E 011°41'0 0.0
2016-May-19 15:33N 57°33' E 011°41'0 0.0
2016-May-19 14:33N 57°33' E 011°41'0 0.0
2016-May-19 13:33N 57°33' E 011°41'0 0.0
2016-May-19 12:33N 57°33' E 011°41'0 0.0
2016-May-19 11:33N 57°33' E 011°41'0 0.0
2016-May-19 10:33N 57°33' E 011°41'0 0.0
2016-May-19 09:33N 57°33' E 011°41'0 0.0
2016-May-19 08:33N 57°33' E 011°41'0 0.0
2016-May-19 07:33N 57°33' E 011°41'0 0.1
2016-May-19 06:33N 57°33' E 011°41'0 0.0
2016-May-19 05:33N 57°33' E 011°41'0 0.2
2016-May-19 04:33N 57°33' E 011°41'9 9.2
2016-May-19 03:33N 57°37' E 011°25'1111.1
2016-May-19 02:33N 57°48' E 011°18'1110.9
2016-May-19 01:33N 57°58' E 011°10'1110.5
2016-May-19 00:33N 58°08' E 011°03'1110.7
2016-May-18 23:33N 58°17' E 010°55'1110.7
2016-May-18 22:33N 58°27' E 010°47'1111.0
2016-May-18 21:33N 58°38' E 010°41'1111.4
2016-May-18 20:33N 58°49' E 010°38'1211.9
2016-May-18 19:33N 59°01' E 010°35'1110.6
2016-May-18 18:33N 59°11' E 010°37'1111.3
2016-May-18 17:33N 59°23' E 010°34'1110.6
2016-May-18 16:33N 59°33' E 010°36'10 9.8
2016-May-18 15:33N 59°43' E 010°34'9 8.9
2016-May-18 14:33N 59°52' E 010°37'4 0.3
2016-May-18 00:16N 59°53' E 010°46'2 2.5
2016-May-17 23:34N 59°53' E 010°42'10 9.6
2016-May-17 22:33N 59°44' E 010°35'1111.5
2016-May-17 21:33N 59°32' E 010°37'1211.8
2016-May-17 20:33N 59°20' E 010°36'1212.1
2016-May-17 19:33N 59°08' E 010°39'1111.4
2016-May-17 18:33N 58°57' E 010°35'1212.5
2016-May-17 17:33N 58°47' E 010°19'1312.8
2016-May-17 16:33N 58°38' E 010°03'1312.6
2016-May-17 15:33N 58°29' E 009°46'1212.4
2016-May-17 14:33N 58°20' E 009°30'1212.3
2016-May-17 13:33N 58°11' E 009°14'1512.1
2016-May-17 12:18N 57°60' E 008°54'5711.5
2016-May-17 07:20N 57°42' E 007°12'911.8
2016-May-17 06:33N 57°42' E 006°55'  
Track history (hours):
 
Tides and Currents Weather Stations Pressure Air Temp Water Temp Dewpoint Dewpoint Depression Visibility Wind Speed Wind Dir Waves Ship Positions

Colorado Star

Last reported at 2016-May-27 06:31 UTC. Time now 2016-May-27 06:38 UTC.
Position N 58°48' W 004°45'.

Length 128 m; draft 8 m.

Type: Ship. MMSI: 248127000.

Date/timePositionNaut miles runAvg speedWind from/ knotsBaromVisibWave heightAir tempDewpointWater temp
2016-May-27 06:31N 58°48' W 004°45'1212.8
2016-May-27 05:33N 58°47' W 004°22'1313.0
2016-May-27 04:33N 58°45' W 003°57'1312.6
2016-May-27 03:33N 58°44' W 003°32'1312.6
2016-May-27 02:33N 58°43' W 003°08'1111.0
2016-May-27 01:33N 58°42' W 002°47'3 2.6
2016-May-27 00:33N 58°42' W 002°42'11 8.5
2016-May-26 23:14N 58°42' W 002°21'1110.9
2016-May-26 22:16N 58°42' W 002°00'25411.2
2016-May-25 23:33N 57°39' E 005°46'1111.1
2016-May-25 22:32N 57°37' E 006°07'1110.9
2016-May-25 21:33N 57°36' E 006°27'1111.4
2016-May-25 20:33N 57°36' E 006°48'11511.6
2016-May-25 10:33N 58°05' E 010°18'1212.0
2016-May-25 09:33N 58°09' E 010°40'1212.0
2016-May-25 08:33N 58°14' E 011°01'1211.6
2016-May-25 07:33N 58°19' E 011°21'4 3.8
2016-May-25 06:33N 58°21' E 011°26'0 0.0
2016-May-25 05:33N 58°21' E 011°26'0 0.0
2016-May-25 04:33N 58°21' E 011°26'0 0.0
2016-May-25 03:33N 58°21' E 011°26'0 0.0
2016-May-25 02:33N 58°21' E 011°26'0 0.0
2016-May-25 01:33N 58°21' E 011°26'0 0.0
2016-May-25 00:33N 58°21' E 011°26'0 0.0
2016-May-24 23:33N 58°21' E 011°26'0 0.0
2016-May-24 22:33N 58°21' E 011°26'0 0.0
2016-May-24 21:33N 58°21' E 011°26'0 0.0
2016-May-24 20:30N 58°21' E 011°26'0 0.0
2016-May-24 19:33N 58°21' E 011°26'0 0.0
2016-May-24 18:30N 58°21' E 011°26'0 0.0
2016-May-24 17:33N 58°21' E 011°26'0 0.0
2016-May-24 16:33N 58°21' E 011°26'0 0.0
2016-May-24 15:33N 58°21' E 011°26'0 0.0
2016-May-24 14:33N 58°21' E 011°26'0 0.0
2016-May-24 13:33N 58°21' E 011°26'0 0.0
2016-May-24 12:33N 58°21' E 011°26'0 0.0
2016-May-24 11:30N 58°21' E 011°26'0 0.0
2016-May-24 10:33N 58°21' E 011°26'0 0.0
2016-May-24 09:33N 58°21' E 011°26'0 0.0
2016-May-24 08:33N 58°21' E 011°26'0 0.0
2016-May-24 07:33N 58°21' E 011°26'0 0.0
2016-May-24 06:33N 58°21' E 011°26'6 5.5
2016-May-24 05:33N 58°18' E 011°18'6 6.0
2016-May-24 04:32N 58°12' E 011°14'0 0.0
2016-May-24 03:32N 58°12' E 011°14'0 0.0
2016-May-24 02:32N 58°12' E 011°14'0 0.0
2016-May-24 01:32N 58°12' E 011°14'0 0.0
2016-May-24 00:32N 58°12' E 011°14'0 0.0
2016-May-23 23:32N 58°12' E 011°14'0 0.0
2016-May-23 22:32N 58°12' E 011°14'0 0.0
2016-May-23 21:32N 58°12' E 011°14'0 0.0
2016-May-23 20:32N 58°12' E 011°14'0 0.0
2016-May-23 19:32N 58°12' E 011°14'0 0.0
2016-May-23 18:32N 58°12' E 011°14'0 0.0
2016-May-23 17:32N 58°12' E 011°14'2 1.7
2016-May-23 16:33N 58°11' E 011°12'1211.5
2016-May-23 15:34N 57°60' E 011°15'1212.4
2016-May-23 14:34N 57°48' E 011°21'1212.2
2016-May-23 13:34N 57°36' E 011°28'7 7.0
2016-May-23 12:30N 57°33' E 011°41'0 0.0
2016-May-23 11:33N 57°33' E 011°41'0 0.0
2016-May-23 10:33N 57°33' E 011°41'0 0.0
2016-May-23 09:33N 57°33' E 011°41'0 0.0
2016-May-23 08:30N 57°33' E 011°41'0 0.0
2016-May-23 07:33N 57°33' E 011°41'0 0.0
2016-May-23 06:30N 57°33' E 011°41'0 0.0
2016-May-23 05:33N 57°33' E 011°41'0 0.0
2016-May-23 04:33N 57°33' E 011°41'0 0.0
2016-May-23 03:33N 57°33' E 011°41'0 0.0
2016-May-23 02:33N 57°33' E 011°41'0 0.0
2016-May-23 01:30N 57°33' E 011°41'0 0.0
2016-May-23 00:33N 57°33' E 011°41'0 0.0
2016-May-22 23:33N 57°33' E 011°41'0 0.0
2016-May-22 22:33N 57°33' E 011°41'0 0.0
2016-May-22 21:33N 57°33' E 011°41'0 0.0
2016-May-22 20:33N 57°33' E 011°41'0 0.0
2016-May-22 19:33N 57°33' E 011°41'0 0.0
2016-May-22 18:33N 57°33' E 011°41'0 0.0
2016-May-22 17:33N 57°33' E 011°41'0 0.0
2016-May-22 16:33N 57°33' E 011°41'0 0.0
2016-May-22 15:33N 57°33' E 011°41'0 0.0
2016-May-22 14:33N 57°33' E 011°41'0 0.0
2016-May-22 13:33N 57°33' E 011°41'0 0.0
2016-May-22 12:33N 57°33' E 011°41'0 0.0
2016-May-22 11:33N 57°33' E 011°41'0 0.0
2016-May-22 10:33N 57°33' E 011°41'0 0.0
2016-May-22 09:33N 57°33' E 011°41'0 0.0
2016-May-22 08:33N 57°33' E 011°41'0 0.0
2016-May-22 07:33N 57°33' E 011°41'0 0.0
2016-May-22 06:33N 57°33' E 011°41'0 0.0
2016-May-22 05:33N 57°33' E 011°41'0 0.0
2016-May-22 04:33N 57°33' E 011°41'0 0.0
2016-May-22 03:33N 57°33' E 011°41'0 0.0
2016-May-22 02:33N 57°33' E 011°41'0 0.0
2016-May-22 01:33N 57°33' E 011°41'0 0.0
2016-May-22 00:33N 57°33' E 011°41'0 0.0
2016-May-21 23:33N 57°33' E 011°41'0 0.0
2016-May-21 22:33N 57°33' E 011°41'0 0.0
2016-May-21 21:33N 57°33' E 011°41'0 0.0
2016-May-21 20:33N 57°33' E 011°41'0 0.0
2016-May-21 19:33N 57°33' E 011°41'0 0.0
2016-May-21 18:33N 57°33' E 011°41'0 0.0
2016-May-21 17:33N 57°33' E 011°41'0 0.0
2016-May-21 16:33N 57°33' E 011°41'0 0.0
2016-May-21 15:33N 57°33' E 011°41'0 0.0
2016-May-21 14:33N 57°33' E 011°41'0 0.0
2016-May-21 13:33N 57°33' E 011°41'0 0.0
2016-May-21 12:33N 57°33' E 011°41'0 0.0
2016-May-21 11:33N 57°33' E 011°41'0 0.0
2016-May-21 10:33N 57°33' E 011°41'0 0.0
2016-May-21 09:33N 57°33' E 011°41'0 0.0
2016-May-21 08:33N 57°33' E 011°41'0 0.0
2016-May-21 07:33N 57°33' E 011°41'0 0.0
2016-May-21 06:33N 57°33' E 011°41'0 0.0
2016-May-21 05:33N 57°33' E 011°41'0 0.0
2016-May-21 04:33N 57°33' E 011°41'0 0.0
2016-May-21 03:33N 57°33' E 011°41'0 0.0
2016-May-21 02:33N 57°33' E 011°41'0 0.0
2016-May-21 01:33N 57°33' E 011°41'0 0.0
2016-May-21 00:30N 57°33' E 011°41'0 0.0
2016-May-20 23:33N 57°33' E 011°41'0 0.0
2016-May-20 22:33N 57°33' E 011°41'0 0.0
2016-May-20 21:33N 57°33' E 011°41'0 0.0
2016-May-20 20:33N 57°33' E 011°41'0 0.0
2016-May-20 19:33N 57°33' E 011°41'0 0.0
2016-May-20 18:33N 57°33' E 011°41'0 0.0
2016-May-20 17:33N 57°33' E 011°41'0 0.0
2016-May-20 16:33N 57°33' E 011°41'0 0.0
2016-May-20 15:33N 57°33' E 011°41'0 0.0
2016-May-20 14:33N 57°33' E 011°41'0 0.0
2016-May-20 13:33N 57°33' E 011°41'0 0.0
2016-May-20 12:33N 57°33' E 011°41'0 0.0
2016-May-20 11:33N 57°33' E 011°41'0 0.0
2016-May-20 10:33N 57°33' E 011°41'0 0.0
2016-May-20 09:33N 57°33' E 011°41'0 0.0
2016-May-20 08:33N 57°33' E 011°41'0 0.0
2016-May-20 07:33N 57°33' E 011°41'0 0.0
2016-May-20 06:33N 57°33' E 011°41'0 0.0
2016-May-20 05:33N 57°33' E 011°41'0 0.0
2016-May-20 04:33N 57°33' E 011°41'0 0.0
2016-May-20 03:33N 57°33' E 011°41'0 0.0
2016-May-20 02:33N 57°33' E 011°41'0 0.0
2016-May-20 01:33N 57°33' E 011°41'0 0.0
2016-May-20 00:33N 57°33' E 011°41'0 0.0
2016-May-19 23:33N 57°33' E 011°41'0 0.0
2016-May-19 22:33N 57°33' E 011°41'0 0.0
2016-May-19 21:33N 57°33' E 011°41'0 0.0
2016-May-19 20:33N 57°33' E 011°41'0 0.0
2016-May-19 19:33N 57°33' E 011°41'0 0.0
2016-May-19 18:33N 57°33' E 011°41'0 0.0
2016-May-19 17:33N 57°33' E 011°41'0 0.0
2016-May-19 16:33N 57°33' E 011°41'0 0.0
2016-May-19 15:33N 57°33' E 011°41'0 0.0
2016-May-19 14:33N 57°33' E 011°41'0 0.0
2016-May-19 13:33N 57°33' E 011°41'0 0.0
2016-May-19 12:33N 57°33' E 011°41'0 0.0
2016-May-19 11:33N 57°33' E 011°41'0 0.0
2016-May-19 10:33N 57°33' E 011°41'0 0.0
2016-May-19 09:33N 57°33' E 011°41'0 0.0
2016-May-19 08:33N 57°33' E 011°41'0 0.0
2016-May-19 07:33N 57°33' E 011°41'0 0.1
2016-May-19 06:33N 57°33' E 011°41'0 0.0
2016-May-19 05:33N 57°33' E 011°41'0 0.2
2016-May-19 04:33N 57°33' E 011°41'9 9.2
2016-May-19 03:33N 57°37' E 011°25'1111.1
2016-May-19 02:33N 57°48' E 011°18'1110.9
2016-May-19 01:33N 57°58' E 011°10'1110.5
2016-May-19 00:33N 58°08' E 011°03'1110.7
2016-May-18 23:33N 58°17' E 010°55'1110.7
2016-May-18 22:33N 58°27' E 010°47'1111.0
2016-May-18 21:33N 58°38' E 010°41'1111.4
2016-May-18 20:33N 58°49' E 010°38'1211.9
2016-May-18 19:33N 59°01' E 010°35'1110.6
2016-May-18 18:33N 59°11' E 010°37'1111.3
2016-May-18 17:33N 59°23' E 010°34'1110.6
2016-May-18 16:33N 59°33' E 010°36'10 9.8
2016-May-18 15:33N 59°43' E 010°34'9 8.9
2016-May-18 14:33N 59°52' E 010°37'4 0.3
2016-May-18 00:16N 59°53' E 010°46'2 2.5
2016-May-17 23:34N 59°53' E 010°42'10 9.6
2016-May-17 22:33N 59°44' E 010°35'1111.5
2016-May-17 21:33N 59°32' E 010°37'1211.8
2016-May-17 20:33N 59°20' E 010°36'1212.1
2016-May-17 19:33N 59°08' E 010°39'1111.4
2016-May-17 18:33N 58°57' E 010°35'1212.5
2016-May-17 17:33N 58°47' E 010°19'1312.8
2016-May-17 16:33N 58°38' E 010°03'1312.6
2016-May-17 15:33N 58°29' E 009°46'1212.4
2016-May-17 14:33N 58°20' E 009°30'1212.3
2016-May-17 13:33N 58°11' E 009°14'1512.1
2016-May-17 12:18N 57°60' E 008°54'5711.5
2016-May-17 07:20N 57°42' E 007°12'911.8
2016-May-17 06:33N 57°42' E 006°55'  

Dump ship's entire track history